createdAt,value
2023-05-06T00:00:56.402Z,95814.13
2023-05-06T00:03:24.796Z,95809.03
2023-05-06T00:05:53.116Z,95816.28
2023-05-06T00:08:22.805Z,95811.19
2023-05-06T00:10:51.508Z,95813.59
2023-05-06T00:13:19.967Z,95805.03
2023-05-06T00:15:48.296Z,95806.38
2023-05-06T00:18:16.546Z,95805.88
2023-05-06T00:20:44.799Z,95810.47
2023-05-06T00:23:13.307Z,95804.28
2023-05-06T00:25:43.348Z,95804.81
2023-05-06T00:32:36.319Z,95809.13
2023-05-06T00:35:04.812Z,95806.44
2023-05-06T00:37:33.152Z,95806.44
2023-05-06T00:40:01.363Z,95802.69
2023-05-06T00:51:19.833Z,95809.97
2023-05-06T00:53:48.765Z,95818.03
2023-05-06T00:56:20.586Z,95808.88
2023-05-06T00:58:49.383Z,95799.75
2023-05-06T01:01:18.067Z,95806.72
2023-05-06T01:03:47.253Z,95799.75
2023-05-06T01:06:20.727Z,95801.13
2023-05-06T01:08:53.210Z,95791.47
2023-05-06T01:20:05.445Z,95791.47
2023-05-06T01:22:36.824Z,95783.69
2023-05-06T01:25:07.252Z,95793.63
2023-05-06T01:27:35.545Z,95787.75
2023-05-06T01:30:07.556Z,95789.91
2023-05-06T01:32:40.065Z,95796.66
2023-05-06T01:35:14.422Z,95796.66
2023-05-06T01:37:46.573Z,95793.97
2023-05-06T01:40:16.437Z,95800.44
2023-05-06T01:42:44.737Z,95794.25
2023-05-06T01:45:13.330Z,95797.75
2023-05-06T01:47:41.631Z,95794.28
2023-05-06T01:59:27.998Z,95798.91
2023-05-06T02:01:57.954Z,95797.59
2023-05-06T02:04:26.204Z,95802.44
2023-05-06T02:06:54.474Z,95801.41
2023-05-06T02:13:41.424Z,95800.13
2023-05-06T02:16:12.531Z,95805.53
2023-05-06T02:18:41.586Z,95801.00
2023-05-06T02:21:11.128Z,95803.97
2023-05-06T02:36:17.959Z,95809.34
2023-05-06T02:38:46.235Z,95800.50
2023-05-06T02:41:14.486Z,95808.03
2023-05-06T02:43:42.842Z,95800.25
2023-05-06T02:50:35.911Z,95789.84
2023-05-06T02:53:05.593Z,95801.66
2023-05-06T02:55:34.354Z,95799.78
2023-05-06T02:58:03.249Z,95801.41
2023-05-06T03:00:57.000Z,95791.25
2023-05-06T03:03:25.350Z,95794.47
2023-05-06T03:05:53.879Z,95789.94
2023-05-06T03:08:24.270Z,95790.78
2023-05-06T03:10:52.861Z,95795.88
2023-05-06T03:13:47.084Z,95796.38
2023-05-06T03:16:16.271Z,95795.88
2023-05-06T03:18:48.630Z,95802.31
2023-05-06T03:21:17.888Z,95802.59
2023-05-06T03:24:37.771Z,95795.63
2023-05-06T03:27:09.639Z,95805.03
2023-05-06T03:29:38.293Z,95810.38
2023-05-06T03:32:08.429Z,95807.16
2023-05-06T03:35:44.177Z,95805.28
2023-05-06T03:38:12.618Z,95801.31
2023-05-06T03:40:48.540Z,95797.84
2023-05-06T03:43:18.855Z,95798.91
2023-05-06T03:54:40.289Z,95796.56
2023-05-06T03:57:09.373Z,95798.44
2023-05-06T03:59:39.715Z,95807.28
2023-05-06T04:02:08.278Z,95801.63
2023-05-06T04:08:27.601Z,95813.72
2023-05-06T04:10:57.811Z,95812.63
2023-05-06T04:13:31.912Z,95819.34
2023-05-06T04:20:22.898Z,95825.50
2023-05-06T04:22:51.359Z,95831.66
2023-05-06T04:25:21.380Z,95832.97
2023-05-06T04:27:50.085Z,95828.72
2023-05-06T04:34:37.699Z,95825.19
2023-05-06T04:37:10.277Z,95841.81
2023-05-06T04:39:58.922Z,95835.09
2023-05-06T04:42:27.237Z,95838.28
2023-05-06T04:45:12.066Z,95847.41
2023-05-06T04:47:43.201Z,95857.03
2023-05-06T04:50:12.405Z,95851.69
2023-05-06T04:52:42.092Z,95853.56
2023-05-06T04:55:11.337Z,95849.00
2023-05-06T04:57:44.397Z,95866.16
2023-05-06T05:00:14.709Z,95863.25
2023-05-06T05:02:43.388Z,95859.78
2023-05-06T05:05:37.849Z,95867.56
2023-05-06T05:08:13.464Z,95864.34
2023-05-06T05:10:43.584Z,95868.13
2023-05-06T05:13:14.882Z,95877.22
2023-05-06T05:15:45.343Z,95876.94
2023-05-06T05:18:15.842Z,95874.25
2023-05-06T05:20:45.898Z,95878.81
2023-05-06T05:23:17.106Z,95885.25
2023-05-06T05:26:12.265Z,95881.50
2023-05-06T05:28:42.079Z,95888.47
2023-05-06T05:31:10.741Z,95882.00
2023-05-06T05:33:40.195Z,95876.03
2023-05-06T05:36:15.433Z,95876.44
2023-05-06T05:38:47.882Z,95883.31
2023-05-06T05:41:17.593Z,95884.53
2023-05-06T05:43:46.943Z,95895.16
2023-05-06T05:49:25.514Z,95897.53
2023-05-06T05:51:55.557Z,95892.66
2023-05-06T05:54:25.436Z,95892.22
2023-05-06T05:56:53.714Z,95896.78
2023-05-06T05:59:22.950Z,95898.09
2023-05-06T06:01:53.791Z,95899.41
2023-05-06T06:04:22.432Z,95902.31
2023-05-06T06:06:50.697Z,95893.16
2023-05-06T06:09:19.957Z,95896.94
2023-05-06T06:11:50.662Z,95904.22
2023-05-06T06:14:19.326Z,95905.75
2023-05-06T06:16:49.747Z,95896.91
2023-05-06T06:23:44.398Z,95892.13
2023-05-06T06:26:12.894Z,95896.34
2023-05-06T06:28:44.723Z,95898.75
2023-05-06T06:31:13.229Z,95902.88
2023-05-06T06:33:41.979Z,95904.50
2023-05-06T06:36:10.750Z,95908.91
2023-05-06T06:38:39.056Z,95909.19
2023-05-06T06:41:07.334Z,95923.16
2023-05-06T06:44:49.262Z,95921.41
2023-05-06T06:47:19.292Z,95922.28
2023-05-06T06:49:47.595Z,95921.69
2023-05-06T06:52:15.822Z,95921.94
2023-05-06T06:54:44.089Z,95929.19
2023-05-06T06:57:12.610Z,95924.63
2023-05-06T06:59:41.162Z,95931.34
2023-05-06T07:02:09.421Z,95924.78
2023-05-06T07:04:39.133Z,95930.41
2023-05-06T07:11:00.515Z,95923.53
2023-05-06T07:13:29.016Z,95925.06
2023-05-06T07:15:58.812Z,95923.34
2023-05-06T07:19:16.836Z,95922.78
2023-05-06T07:21:46.563Z,95923.00
2023-05-06T07:24:14.754Z,95937.03
2023-05-06T07:26:43.008Z,95932.50
2023-05-06T07:29:11.705Z,95930.03
2023-05-06T07:31:40.007Z,95942.88
2023-05-06T07:34:08.845Z,95935.13
2023-05-06T07:36:40.725Z,95942.53
2023-05-06T07:39:10.900Z,95935.41
2023-05-06T07:41:39.449Z,95940.97
2023-05-06T07:44:07.692Z,95939.38
2023-05-06T07:46:36.381Z,95955.56
2023-05-06T07:49:04.781Z,95957.34
2023-05-06T07:55:46.749Z,95971.34
2023-05-06T07:58:15.894Z,95967.00
2023-05-06T08:00:44.289Z,95970.78
2023-05-06T08:07:32.239Z,95983.28
2023-05-06T08:10:00.869Z,95981.94
2023-05-06T08:12:30.659Z,95982.25
2023-05-06T08:14:58.958Z,95979.47
2023-05-06T08:17:27.235Z,95979.59
2023-05-06T08:19:55.628Z,95979.22
2023-05-06T08:22:24.084Z,95987.22
2023-05-06T08:24:52.305Z,95988.44
2023-05-06T08:27:20.565Z,95990.31
2023-05-06T08:29:50.478Z,95989.75
2023-05-06T08:32:18.698Z,95984.22
2023-05-06T08:34:46.972Z,95988.72
2023-05-06T08:37:15.483Z,95992.97
2023-05-06T08:39:45.564Z,95985.69
2023-05-06T08:42:13.943Z,95985.91
2023-05-06T08:44:42.193Z,95988.81
2023-05-06T08:47:11.845Z,95988.88
2023-05-06T08:49:40.183Z,95980.38
2023-05-06T08:52:08.592Z,95991.50
2023-05-06T08:54:37.164Z,95995.16
2023-05-06T08:57:06.365Z,95991.38
2023-05-06T08:59:35.054Z,95995.94
2023-05-06T09:02:04.013Z,96000.53
2023-05-06T09:04:33.670Z,95997.75
2023-05-06T09:07:51.719Z,95996.25
2023-05-06T09:10:20.055Z,95994.09
2023-05-06T09:12:48.311Z,95986.19
2023-05-06T09:15:16.557Z,95995.44
2023-05-06T09:17:45.453Z,95987.72
2023-05-06T09:20:15.130Z,95979.81
2023-05-06T09:22:43.500Z,95985.13
2023-05-06T09:25:12.253Z,95982.56
2023-05-06T09:27:40.887Z,95982.25
2023-05-06T09:30:11.660Z,95976.03
2023-05-06T09:32:40.603Z,95969.94
2023-05-06T09:35:10.117Z,95982.13
2023-05-06T09:37:40.237Z,95984.47
2023-05-06T09:40:10.332Z,95979.53
2023-05-06T09:42:39.056Z,95984.75
2023-05-06T09:45:11.120Z,95990.03
2023-05-06T09:47:39.650Z,95984.03
2023-05-06T09:50:17.243Z,95989.13
2023-05-06T09:52:47.489Z,95984.84
2023-05-06T09:55:15.756Z,95982.66
2023-05-06T09:57:44.279Z,95988.22
2023-05-06T10:00:14.497Z,95977.34
2023-05-06T10:02:43.051Z,95975.44
2023-05-06T10:05:12.554Z,95983.69
2023-05-06T10:07:41.489Z,95981.56
2023-05-06T10:10:12.311Z,95984.13
2023-05-06T10:12:40.845Z,95980.69
2023-05-06T10:15:10.668Z,95983.50
2023-05-06T10:17:39.433Z,95979.69
2023-05-06T10:20:09.312Z,95978.84
2023-05-06T10:22:42.708Z,95982.84
2023-05-06T10:25:17.335Z,95980.69
2023-05-06T10:27:46.463Z,95975.31
2023-05-06T10:30:16.097Z,95970.00
2023-05-06T10:32:44.989Z,95968.66
2023-05-06T10:35:20.548Z,95965.59
2023-05-06T10:37:49.092Z,95962.34
2023-05-06T10:40:20.163Z,95965.19
2023-05-06T10:42:48.364Z,95968.31
2023-05-06T10:45:16.751Z,95958.28
2023-05-06T10:48:12.860Z,95962.44
2023-05-06T10:50:41.185Z,95956.13
2023-05-06T10:53:09.690Z,95960.50
2023-05-06T10:55:39.339Z,95950.78
2023-05-06T10:58:15.078Z,95956.13
2023-05-06T11:00:43.429Z,95953.19
2023-05-06T11:07:42.306Z,95951.03
2023-05-06T11:10:12.293Z,95952.06
2023-05-06T11:12:49.389Z,95955.47
2023-05-06T11:15:22.673Z,95952.50
2023-05-06T11:17:51.034Z,95961.16
2023-05-06T11:20:20.337Z,95950.59
2023-05-06T11:22:48.638Z,95950.94
2023-05-06T11:25:25.819Z,95960.38
2023-05-06T11:27:57.055Z,95955.59
2023-05-06T11:30:25.892Z,95953.66
2023-05-06T11:32:54.623Z,95958.09
2023-05-06T11:35:23.212Z,95965.19
2023-05-06T11:37:51.590Z,95961.09
2023-05-06T11:40:19.976Z,95962.28
2023-05-06T11:42:48.288Z,95958.44
2023-05-06T11:45:18.111Z,95960.94
2023-05-06T11:47:46.849Z,95965.03
2023-05-06T11:50:15.245Z,95963.44
2023-05-06T11:52:43.478Z,95968.88
2023-05-06T11:55:11.715Z,95973.41
2023-05-06T11:57:46.312Z,95970.13
2023-05-06T12:00:18.814Z,95968.09
2023-05-06T12:02:47.126Z,95972.53
2023-05-06T12:05:15.959Z,95975.16
2023-05-06T12:08:19.839Z,95981.50
2023-05-06T12:10:54.960Z,95979.22
2023-05-06T12:13:23.384Z,95988.63
2023-05-06T12:15:53.356Z,95979.59
2023-05-06T12:18:22.057Z,95969.38
2023-05-06T12:20:50.305Z,95980.91
2023-05-06T12:23:20.108Z,95990.22
2023-05-06T12:25:49.146Z,95982.44
2023-05-06T12:28:43.829Z,95978.47
2023-05-06T12:31:23.192Z,95979.59
2023-05-06T12:33:51.753Z,95984.78
2023-05-06T12:36:20.072Z,95975.69
2023-05-06T12:38:52.738Z,95979.78
2023-05-06T12:41:21.695Z,95978.78
2023-05-06T12:43:50.381Z,95982.72
2023-05-06T12:46:18.990Z,95978.56
2023-05-06T12:52:44.472Z,95969.72
2023-05-06T12:55:12.983Z,95970.75
2023-05-06T12:57:41.404Z,95974.22
2023-05-06T13:00:27.925Z,95973.56
2023-05-06T13:02:56.280Z,95976.81
2023-05-06T13:05:24.586Z,95980.56
2023-05-06T13:07:54.190Z,95978.75
2023-05-06T13:10:22.498Z,95976.28
2023-05-06T13:12:51.060Z,95966.41
2023-05-06T13:15:20.679Z,95974.25
2023-05-06T13:17:49.580Z,95970.09
2023-05-06T13:20:19.090Z,95968.19
2023-05-06T13:22:54.387Z,95970.13
2023-05-06T13:25:24.951Z,95970.09
2023-05-06T13:27:53.916Z,95960.81
2023-05-06T13:30:22.215Z,95968.16
2023-05-06T13:32:50.543Z,95958.91
2023-05-06T13:35:18.963Z,95967.84
2023-05-06T13:37:47.223Z,95961.94
2023-05-06T13:40:15.916Z,95961.44
2023-05-06T13:42:45.565Z,95972.03
2023-05-06T13:45:13.857Z,95971.25
2023-05-06T13:47:43.354Z,95964.88
2023-05-06T13:50:12.668Z,95972.22
2023-05-06T13:52:41.069Z,95963.22
2023-05-06T13:55:10.307Z,95958.88
2023-05-06T13:57:38.815Z,95970.44
2023-05-06T14:00:11.198Z,95975.75
2023-05-06T14:02:39.537Z,95960.88
2023-05-06T14:05:08.996Z,95967.69
2023-05-06T14:07:40.402Z,95968.06
2023-05-06T14:10:10.591Z,95965.16
2023-05-06T14:13:21.409Z,95966.00
2023-05-06T14:15:51.148Z,95951.09
2023-05-06T14:18:19.502Z,95951.13
2023-05-06T14:20:47.720Z,95943.44
2023-05-06T14:23:15.967Z,95947.75
2023-05-06T14:25:44.234Z,95944.91
2023-05-06T14:28:12.980Z,95944.88
2023-05-06T14:30:41.233Z,95943.91
2023-05-06T14:33:11.582Z,95949.97
2023-05-06T14:35:41.844Z,95944.06
2023-05-06T14:38:10.690Z,95948.88
2023-05-06T14:40:38.989Z,95950.78
2023-05-06T14:43:08.046Z,95954.91
2023-05-06T14:46:28.593Z,95948.75
2023-05-06T14:48:59.106Z,95959.59
2023-05-06T14:51:29.183Z,95951.44
2023-05-06T14:53:58.168Z,95949.69
2023-05-06T14:57:01.345Z,95953.19
2023-05-06T14:59:29.579Z,95956.97
2023-05-06T15:01:58.915Z,95960.97
2023-05-06T15:04:28.598Z,95956.56
2023-05-06T15:06:57.981Z,95954.84
2023-05-06T15:09:26.425Z,95950.03
2023-05-06T15:11:54.782Z,95948.00
2023-05-06T15:14:23.029Z,95949.94
2023-05-06T15:16:51.809Z,95947.22
2023-05-06T15:19:20.079Z,95955.34
2023-05-06T15:21:49.748Z,95952.00
2023-05-06T15:24:17.973Z,95960.66
2023-05-06T15:26:46.346Z,95959.13
2023-05-06T15:29:14.885Z,95950.97
2023-05-06T15:31:45.120Z,95957.53
2023-05-06T15:34:13.454Z,95957.25
2023-05-06T15:36:42.549Z,95958.19
2023-05-06T15:39:18.292Z,95955.66
2023-05-06T15:41:47.255Z,95953.28
2023-05-06T15:44:16.253Z,95961.63
2023-05-06T15:46:44.953Z,95962.88
2023-05-06T15:49:54.802Z,95962.25
2023-05-06T15:52:23.714Z,95961.63
2023-05-06T15:54:58.945Z,95956.69
2023-05-06T15:57:30.178Z,95955.72
2023-05-06T16:00:12.405Z,95961.75
2023-05-06T16:02:41.199Z,95957.94
2023-05-06T16:05:10.604Z,95954.88
2023-05-06T16:07:38.946Z,95962.09
2023-05-06T16:13:46.393Z,95967.84
2023-05-06T16:16:14.798Z,95965.31
2023-05-06T16:18:43.058Z,95969.13
2023-05-06T16:21:35.681Z,95968.03
2023-05-06T16:24:04.673Z,95964.13
2023-05-06T16:26:34.555Z,95966.25
2023-05-06T16:29:02.799Z,95967.25
2023-05-06T16:31:31.524Z,95975.28
2023-05-06T16:33:59.791Z,95971.13
2023-05-06T16:36:28.660Z,95973.34
2023-05-06T16:38:56.947Z,95969.19
2023-05-06T16:41:25.174Z,95969.44
2023-05-06T16:43:55.218Z,95974.09
2023-05-06T16:46:24.711Z,95985.13
2023-05-06T16:48:54.207Z,95978.75
2023-05-06T16:51:22.787Z,95974.09
2023-05-06T16:53:51.114Z,95973.09
2023-05-06T16:56:19.293Z,95981.91
2023-05-06T16:58:47.562Z,95977.69
2023-05-06T17:01:17.364Z,95975.84
2023-05-06T17:03:46.341Z,95968.56
2023-05-06T17:06:14.817Z,95966.78
2023-05-06T17:08:43.276Z,95969.63
2023-05-06T17:11:11.590Z,95968.69
2023-05-06T17:13:39.830Z,95968.81
2023-05-06T17:16:08.653Z,95967.66
2023-05-06T17:18:38.844Z,95971.06
2023-05-06T17:21:08.290Z,95975.84
2023-05-06T17:23:58.250Z,95969.44
2023-05-06T17:26:27.012Z,95974.22
2023-05-06T17:28:55.506Z,95970.31
2023-05-06T17:31:23.929Z,95981.38
2023-05-06T17:33:53.695Z,95973.56
2023-05-06T17:36:22.389Z,95970.44
2023-05-06T17:38:53.110Z,95979.81
2023-05-06T17:41:21.364Z,95977.44
2023-05-06T17:43:49.669Z,95976.00
2023-05-06T17:46:19.615Z,95984.94
2023-05-06T17:48:48.044Z,95982.72
2023-05-06T17:51:18.296Z,95989.53
2023-05-06T17:53:46.547Z,95979.13
2023-05-06T17:56:14.760Z,95979.22
2023-05-06T17:58:43.012Z,95989.25
2023-05-06T18:01:11.693Z,95988.25
2023-05-06T18:03:40.442Z,95985.88
2023-05-06T18:06:09.316Z,95993.78
2023-05-06T18:08:38.928Z,95996.75
2023-05-06T18:11:07.244Z,95997.97
2023-05-06T18:13:36.557Z,95997.25
2023-05-06T18:16:05.023Z,96001.91
2023-05-06T18:18:33.534Z,96004.63
2023-05-06T18:21:01.759Z,96011.69
2023-05-06T18:23:30.197Z,96010.41
2023-05-06T18:25:59.799Z,96012.13
2023-05-06T18:28:28.047Z,96008.44
2023-05-06T18:30:56.750Z,96010.94
2023-05-06T18:33:25.110Z,96013.94
2023-05-06T18:35:53.400Z,96008.38
2023-05-06T18:38:21.643Z,96012.19
2023-05-06T18:40:49.913Z,96013.63
2023-05-06T18:43:19.564Z,96011.03
2023-05-06T18:46:05.421Z,96011.38
2023-05-06T18:48:33.835Z,96007.94
2023-05-06T18:51:12.676Z,96005.28
2023-05-06T18:53:41.041Z,96006.69
2023-05-06T18:57:10.412Z,96011.28
2023-05-06T18:59:40.148Z,96014.56
2023-05-06T19:02:08.867Z,96019.97
2023-05-06T19:04:37.279Z,96017.59
2023-05-06T19:07:55.813Z,96022.47
2023-05-06T19:10:24.256Z,96020.66
2023-05-06T19:12:53.179Z,96028.19
2023-05-06T19:15:23.297Z,96036.00
2023-05-06T19:17:51.646Z,96044.09
2023-05-06T19:20:19.904Z,96042.50
2023-05-06T19:22:48.166Z,96044.13
2023-05-06T19:25:16.418Z,96048.72
2023-05-06T19:28:00.393Z,96043.09
2023-05-06T19:30:30.615Z,96050.06
2023-05-06T19:32:59.409Z,96037.50
2023-05-06T19:35:27.658Z,96035.38
2023-05-06T19:39:31.145Z,96042.38
2023-05-06T19:41:11.036Z,96049.34
2023-05-06T19:43:42.135Z,96042.94
2023-05-06T19:46:11.873Z,96046.16
2023-05-06T19:48:40.162Z,96049.38
2023-05-06T19:51:08.372Z,96051.75
2023-05-06T19:53:37.220Z,96052.06
2023-05-06T19:56:11.900Z,96047.78
2023-05-06T19:58:40.196Z,96055.00
2023-05-06T20:01:09.970Z,96051.00
2023-05-06T20:03:40.981Z,96051.00
2023-05-06T20:06:10.495Z,96056.34
2023-05-06T20:08:38.968Z,96052.63
2023-05-06T20:11:07.360Z,96056.63
2023-05-06T20:13:35.822Z,96055.78
2023-05-06T20:16:04.388Z,96052.59
2023-05-06T20:18:33.654Z,96057.94
2023-05-06T20:21:03.688Z,96061.66
2023-05-06T20:23:32.405Z,96054.44
2023-05-06T20:26:00.648Z,96068.09
2023-05-06T20:28:28.872Z,96067.31
2023-05-06T20:30:59.782Z,96066.75
2023-05-06T20:33:28.185Z,96063.53
2023-05-06T20:35:57.929Z,96069.72
2023-05-06T20:38:30.169Z,96067.84
2023-05-06T20:40:59.119Z,96073.72
2023-05-06T20:43:27.324Z,96069.16
2023-05-06T20:45:55.634Z,96072.91
2023-05-06T20:48:23.934Z,96077.97
2023-05-06T20:50:54.254Z,96075.56
2023-05-06T20:53:22.747Z,96080.91
2023-05-06T20:55:53.071Z,96083.31
2023-05-06T20:58:21.398Z,96080.06
2023-05-06T21:00:50.548Z,96089.72
2023-05-06T21:03:18.905Z,96089.47
2023-05-06T21:05:47.333Z,96098.81
2023-05-06T21:08:16.464Z,96089.22
2023-05-06T21:11:53.562Z,96090.28
2023-05-06T21:14:24.762Z,96096.16
2023-05-06T21:16:53.388Z,96097.25
2023-05-06T21:19:21.687Z,96088.44
2023-05-06T21:21:49.969Z,96096.47
2023-05-06T21:24:18.167Z,96096.19
2023-05-06T21:26:46.718Z,96101.81
2023-05-06T21:29:14.961Z,96103.97
2023-05-06T21:31:44.886Z,96091.38
2023-05-06T21:34:13.134Z,96096.47
2023-05-06T21:36:42.342Z,96093.00
2023-05-06T21:39:12.042Z,96094.59
2023-05-06T21:41:40.642Z,96099.66
2023-05-06T21:44:10.121Z,96097.53
2023-05-06T21:46:38.722Z,96097.78
2023-05-06T21:49:08.372Z,96097.00
2023-05-06T21:51:36.948Z,96101.56
2023-05-06T21:54:05.337Z,96098.88
2023-05-06T21:56:33.633Z,96103.97
2023-05-06T21:59:02.201Z,96101.00
2023-05-06T22:01:30.525Z,96094.84
2023-05-06T22:03:58.842Z,96099.09
2023-05-06T22:06:29.135Z,96101.53
2023-05-06T22:08:57.382Z,96094.84
2023-05-06T22:11:25.989Z,96102.06
2023-05-06T22:18:13.948Z,96101.75
2023-05-06T22:20:42.178Z,96105.78
2023-05-06T22:23:12.649Z,96106.28
2023-05-06T22:25:41.225Z,96098.53
2023-05-06T22:28:09.461Z,96106.00
2023-05-06T22:30:37.716Z,96107.09
2023-05-06T22:33:06.156Z,96101.44
2023-05-06T22:35:34.451Z,96096.91
2023-05-06T22:38:03.059Z,96092.84
2023-05-06T22:40:32.664Z,96097.91
2023-05-06T22:43:00.903Z,96090.66
2023-05-06T22:45:29.146Z,96093.88
2023-05-06T22:48:23.856Z,96095.75
2023-05-06T22:50:52.842Z,96094.16
2023-05-06T22:53:21.306Z,96109.38
2023-05-06T22:55:50.986Z,96108.03
2023-05-06T22:58:43.961Z,96121.16
2023-05-06T23:01:12.294Z,96111.25
2023-05-06T23:03:40.610Z,96108.03
2023-05-06T23:06:09.273Z,96101.59
2023-05-06T23:08:37.504Z,96096.25
2023-05-06T23:11:07.142Z,96102.34
2023-05-06T23:13:36.598Z,96096.97
2023-05-06T23:16:05.267Z,96101.53
2023-05-06T23:18:33.960Z,96102.81
2023-05-06T23:21:02.939Z,96104.13
2023-05-06T23:23:31.295Z,96100.38
2023-05-06T23:25:59.528Z,96099.59
2023-05-06T23:28:29.219Z,96103.03
2023-05-06T23:31:37.877Z,96098.75
2023-05-06T23:34:06.544Z,96099.03
2023-05-06T23:36:35.324Z,96100.63
2023-05-06T23:39:04.234Z,96094.22
2023-05-06T23:41:32.467Z,96096.38
2023-05-06T23:44:02.141Z,96096.13
2023-05-06T23:46:30.827Z,96094.25
2023-05-06T23:48:59.122Z,96091.56
2023-05-06T23:51:27.766Z,96092.91
2023-05-06T23:57:56.533Z,96098.25
